createdAt,value
2023-05-22T00:01:25.139Z,4.95
2023-05-22T00:04:13.938Z,4.93
2023-05-22T00:06:47.863Z,5.53
2023-05-22T00:09:20.046Z,4.97
2023-05-22T00:11:58.075Z,4.53
2023-05-22T00:14:44.891Z,4.93
2023-05-22T00:17:26.604Z,4.63
2023-05-22T00:20:21.378Z,5.15
2023-05-22T00:22:55.042Z,4.80
2023-05-22T00:25:25.910Z,5.35
2023-05-22T00:30:44.499Z,5.30
2023-05-22T00:33:23.880Z,5.22
2023-05-22T00:36:11.907Z,5.15
2023-05-22T00:38:49.024Z,4.68
2023-05-22T00:41:32.012Z,5.13
2023-05-22T00:44:14.073Z,5.60
2023-05-22T00:46:49.962Z,4.75
2023-05-22T00:49:27.806Z,5.22
2023-05-22T00:52:21.330Z,4.75
2023-05-22T00:55:04.900Z,5.20
2023-05-22T00:57:47.747Z,5.45
2023-05-22T01:00:43.386Z,4.95
2023-05-22T01:03:30.227Z,4.43
2023-05-22T01:06:02.435Z,4.78
2023-05-22T01:08:47.569Z,4.72
2023-05-22T01:11:29.554Z,5.13
2023-05-22T01:14:20.111Z,5.57
2023-05-22T01:17:10.333Z,5.60
2023-05-22T01:20:08.647Z,5.10
2023-05-22T01:23:10.271Z,4.85
2023-05-22T01:29:27.940Z,5.07
2023-05-22T01:32:17.834Z,5.75
2023-05-22T01:35:04.211Z,5.43
2023-05-22T01:37:55.131Z,5.18
2023-05-22T01:40:31.685Z,5.15
2023-05-22T01:43:07.081Z,4.95
2023-05-22T01:45:49.347Z,5.07
2023-05-22T01:48:41.348Z,5.95
2023-05-22T01:51:20.738Z,5.57
2023-05-22T01:54:09.695Z,5.82
2023-05-22T01:57:02.772Z,5.90
2023-05-22T01:59:43.337Z,5.70
2023-05-22T02:02:35.685Z,5.90
2023-05-22T02:08:11.178Z,5.78
2023-05-22T02:13:32.243Z,6.07
2023-05-22T02:16:18.457Z,6.53
2023-05-22T02:19:03.968Z,6.25
2023-05-22T02:21:52.368Z,5.68
2023-05-22T02:24:32.436Z,5.55
2023-05-22T02:27:13.286Z,5.88
2023-05-22T02:30:02.417Z,6.85
2023-05-22T02:32:40.673Z,6.88
2023-05-22T02:35:19.892Z,6.80
2023-05-22T02:38:07.513Z,7.18
2023-05-22T02:40:54.733Z,6.82
2023-05-22T02:46:28.518Z,7.13
2023-05-22T02:49:15.846Z,7.93
2023-05-22T02:51:52.962Z,7.63
2023-05-22T02:54:35.280Z,7.25
2023-05-22T02:57:07.410Z,7.72
2023-05-22T02:59:44.220Z,8.20
2023-05-22T03:02:25.580Z,7.82
2023-05-22T03:07:48.952Z,8.15
2023-05-22T03:10:32.158Z,8.25
2023-05-22T03:13:10.781Z,8.57
2023-05-22T03:15:58.334Z,8.50
2023-05-22T03:18:45.970Z,8.93
2023-05-22T03:21:36.147Z,7.68
2023-05-22T03:24:25.348Z,7.82
2023-05-22T03:27:01.373Z,8.02
2023-05-22T03:30:05.534Z,8.80
2023-05-22T03:32:46.773Z,8.27
2023-05-22T03:35:20.692Z,9.77
2023-05-22T03:38:05.045Z,8.45
2023-05-22T03:40:41.513Z,8.68
2023-05-22T03:43:29.294Z,7.55
2023-05-22T03:46:08.800Z,8.13
2023-05-22T03:48:48.644Z,8.10
2023-05-22T03:51:30.294Z,7.75
2023-05-22T03:54:07.211Z,7.07
2023-05-22T03:56:46.859Z,7.43
2023-05-22T03:59:27.544Z,7.78
2023-05-22T04:02:11.995Z,6.63
2023-05-22T04:04:54.287Z,7.50
2023-05-22T04:07:40.806Z,7.43
2023-05-22T04:10:23.164Z,6.85
2023-05-22T04:12:59.325Z,7.43
2023-05-22T04:15:50.535Z,8.20
2023-05-22T04:18:29.636Z,7.78
2023-05-22T04:21:06.724Z,6.93
2023-05-22T04:23:52.143Z,7.50
2023-05-22T04:26:36.243Z,6.93
2023-05-22T04:29:15.732Z,8.05
2023-05-22T04:32:05.882Z,7.00
2023-05-22T04:34:48.541Z,6.82
2023-05-22T04:37:32.608Z,6.68
2023-05-22T04:40:07.690Z,7.22
2023-05-22T04:42:54.081Z,5.85
2023-05-22T04:45:42.096Z,7.18
2023-05-22T04:48:31.986Z,6.55
2023-05-22T04:51:07.635Z,7.05
2023-05-22T04:53:55.536Z,6.25
2023-05-22T04:56:36.762Z,6.85
2023-05-22T04:59:20.698Z,7.45
2023-05-22T05:02:23.687Z,6.63
2023-05-22T05:05:04.424Z,6.60
2023-05-22T05:07:42.878Z,5.82
2023-05-22T05:10:15.448Z,6.00
2023-05-22T05:13:07.762Z,5.88
2023-05-22T05:16:10.906Z,5.82
2023-05-22T05:18:46.708Z,6.20
2023-05-22T05:21:33.721Z,5.90
2023-05-22T05:24:10.193Z,5.38
2023-05-22T05:26:50.096Z,5.50
2023-05-22T05:29:39.405Z,5.25
2023-05-22T05:32:24.561Z,5.93
2023-05-22T05:35:07.703Z,5.60
2023-05-22T05:37:56.152Z,5.38
2023-05-22T05:40:27.936Z,4.75
2023-05-22T05:42:59.635Z,5.70
2023-05-22T05:45:40.051Z,5.53
2023-05-22T05:48:12.383Z,4.75
2023-05-22T05:50:56.555Z,6.40
2023-05-22T05:53:52.395Z,6.15
2023-05-22T05:56:31.634Z,5.78
2023-05-22T05:59:10.989Z,6.18
2023-05-22T06:01:53.228Z,5.70
2023-05-22T06:04:36.826Z,6.15
2023-05-22T06:07:12.659Z,5.93
2023-05-22T06:10:02.809Z,5.65
2023-05-22T06:13:08.015Z,5.80
2023-05-22T06:16:07.605Z,5.80
2023-05-22T06:18:46.432Z,6.50
2023-05-22T06:21:28.481Z,5.97
2023-05-22T06:24:16.007Z,6.80
2023-05-22T06:27:20.669Z,6.68
2023-05-22T06:29:56.403Z,6.80
2023-05-22T06:32:43.578Z,6.80
2023-05-22T06:38:12.457Z,7.20
2023-05-22T06:40:55.234Z,6.55
2023-05-22T06:43:37.354Z,6.38
2023-05-22T06:46:34.971Z,6.30
2023-05-22T06:49:16.645Z,6.35
2023-05-22T06:52:05.119Z,6.63
2023-05-22T06:54:42.574Z,6.78
2023-05-22T06:57:21.665Z,7.15
2023-05-22T07:00:21.562Z,7.05
2023-05-22T07:03:26.761Z,6.97
2023-05-22T07:06:20.285Z,7.28
2023-05-22T07:11:57.227Z,6.15
2023-05-22T07:14:33.833Z,6.60
2023-05-22T07:17:19.501Z,6.93
2023-05-22T07:19:56.369Z,7.63
2023-05-22T07:22:34.864Z,6.82
2023-05-22T07:25:07.803Z,6.72
2023-05-22T07:28:02.811Z,6.68
2023-05-22T07:30:41.080Z,7.07
2023-05-22T07:33:31.898Z,6.60
2023-05-22T07:36:04.289Z,6.35
2023-05-22T07:38:58.000Z,6.50
2023-05-22T07:41:38.260Z,5.95
2023-05-22T07:44:22.452Z,6.95
2023-05-22T07:47:00.004Z,6.88
2023-05-22T07:49:49.585Z,6.53
2023-05-22T07:52:25.224Z,6.68
2023-05-22T07:55:02.095Z,7.13
2023-05-22T07:57:44.096Z,7.18
2023-05-22T08:00:29.595Z,6.03
2023-05-22T08:03:25.920Z,5.90
2023-05-22T08:06:04.992Z,6.40
2023-05-22T08:11:14.111Z,6.68
2023-05-22T08:13:45.771Z,5.82
2023-05-22T08:16:17.017Z,5.57
2023-05-22T08:18:53.982Z,6.10
2023-05-22T08:21:44.458Z,6.07
2023-05-22T08:24:22.784Z,6.20
2023-05-22T08:26:54.704Z,6.05
2023-05-22T08:29:30.630Z,5.75
2023-05-22T08:32:13.752Z,6.00
2023-05-22T08:34:53.858Z,5.65
2023-05-22T08:37:29.852Z,6.25
2023-05-22T08:40:04.821Z,5.82
2023-05-22T08:42:40.234Z,5.80
2023-05-22T08:45:12.297Z,5.95
2023-05-22T08:48:03.020Z,5.57
2023-05-22T08:50:35.252Z,5.70
2023-05-22T08:53:18.266Z,5.55
2023-05-22T08:55:49.699Z,6.10
2023-05-22T08:58:31.095Z,5.75
2023-05-22T09:01:10.190Z,5.80
2023-05-22T09:03:46.030Z,6.10
2023-05-22T09:06:34.321Z,6.05
2023-05-22T09:09:10.939Z,5.70
2023-05-22T09:11:54.037Z,6.05
2023-05-22T09:14:30.165Z,6.03
2023-05-22T09:17:08.754Z,5.57
2023-05-22T09:19:44.548Z,5.60
2023-05-22T09:22:31.690Z,6.43
2023-05-22T09:25:13.011Z,6.13
2023-05-22T09:31:06.536Z,5.60
2023-05-22T09:33:46.201Z,5.95
2023-05-22T09:36:21.641Z,6.25
2023-05-22T09:39:04.258Z,6.10
2023-05-22T09:41:49.666Z,6.30
2023-05-22T09:44:35.314Z,6.53
2023-05-22T09:47:19.481Z,5.63
2023-05-22T09:50:04.824Z,6.10
2023-05-22T09:52:54.604Z,6.15
2023-05-22T09:55:30.311Z,6.18
2023-05-22T09:58:09.957Z,6.68
2023-05-22T10:00:54.343Z,5.22
2023-05-22T10:03:30.055Z,6.53
2023-05-22T10:06:07.152Z,5.95
2023-05-22T10:08:58.049Z,7.22
2023-05-22T10:11:52.449Z,6.13
2023-05-22T10:14:44.586Z,6.60
2023-05-22T10:17:23.604Z,5.47
2023-05-22T10:20:04.235Z,5.22
2023-05-22T10:22:43.419Z,5.55
2023-05-22T10:25:24.183Z,5.60
2023-05-22T10:28:09.213Z,4.80
2023-05-22T10:31:06.010Z,4.80
2023-05-22T10:33:53.708Z,4.70
2023-05-22T10:36:38.139Z,4.97
2023-05-22T10:39:37.538Z,5.20
2023-05-22T10:42:27.958Z,5.03
2023-05-22T10:45:11.182Z,4.55
2023-05-22T10:47:49.483Z,4.78
2023-05-22T10:50:40.238Z,3.95
2023-05-22T10:53:34.975Z,4.07
2023-05-22T10:56:25.243Z,4.43
2023-05-22T10:59:06.641Z,4.50
2023-05-22T11:01:42.303Z,3.97
2023-05-22T11:04:35.836Z,4.65
2023-05-22T11:07:15.487Z,4.35
2023-05-22T11:09:54.411Z,4.60
2023-05-22T11:12:30.541Z,4.15
2023-05-22T11:15:15.585Z,4.35
2023-05-22T11:17:52.727Z,4.20
2023-05-22T11:20:35.954Z,4.30
2023-05-22T11:23:28.011Z,5.07
2023-05-22T11:25:59.389Z,3.78
2023-05-22T11:28:35.274Z,4.97
2023-05-22T11:31:10.113Z,4.22
2023-05-22T11:33:50.575Z,4.88
2023-05-22T11:36:34.750Z,4.43
2023-05-22T11:39:08.863Z,4.78
2023-05-22T11:41:44.749Z,4.32
2023-05-22T11:44:19.230Z,4.53
2023-05-22T11:47:01.990Z,4.90
2023-05-22T11:49:45.674Z,4.13
2023-05-22T11:52:31.569Z,4.13
2023-05-22T11:55:11.708Z,4.18
2023-05-22T11:57:52.536Z,5.15
2023-05-22T12:00:30.783Z,4.28
2023-05-22T12:03:12.817Z,4.45
2023-05-22T12:05:52.650Z,4.43
2023-05-22T12:08:37.143Z,4.45
2023-05-22T12:11:17.104Z,4.50
2023-05-22T12:14:08.420Z,4.20
2023-05-22T12:16:56.505Z,4.07
2023-05-22T12:19:29.624Z,4.18
2023-05-22T12:22:07.775Z,4.35
2023-05-22T12:25:02.174Z,4.18
2023-05-22T12:27:37.267Z,4.32
2023-05-22T12:30:23.526Z,4.13
2023-05-22T12:33:11.256Z,4.18
2023-05-22T12:35:44.173Z,3.97
2023-05-22T12:38:23.278Z,3.92
2023-05-22T12:41:01.877Z,3.90
2023-05-22T12:43:38.850Z,4.35
2023-05-22T12:46:18.080Z,3.95
2023-05-22T12:48:52.901Z,4.57
2023-05-22T12:51:33.943Z,4.45
2023-05-22T12:54:21.528Z,4.13
2023-05-22T13:00:12.662Z,3.42
2023-05-22T13:02:50.674Z,4.05
2023-05-22T13:05:26.307Z,4.68
2023-05-22T13:08:01.283Z,4.35
2023-05-22T13:10:44.485Z,3.47
2023-05-22T13:13:31.684Z,4.50
2023-05-22T13:16:33.395Z,3.88
2023-05-22T13:19:05.625Z,3.67
2023-05-22T13:21:44.267Z,3.63
2023-05-22T13:27:02.286Z,4.03
2023-05-22T13:29:56.612Z,3.20
2023-05-22T13:32:35.406Z,3.33
2023-05-22T13:35:23.294Z,3.47
2023-05-22T13:38:08.320Z,2.88
2023-05-22T13:40:48.181Z,3.72
2023-05-22T13:43:31.314Z,3.30
2023-05-22T13:46:10.667Z,3.40
2023-05-22T13:48:50.691Z,3.53
2023-05-22T13:51:31.806Z,2.67
2023-05-22T13:54:27.352Z,2.78
2023-05-22T13:57:06.404Z,2.83
2023-05-22T13:59:48.345Z,3.10
2023-05-22T14:02:39.809Z,2.65
2023-05-22T14:05:23.000Z,2.30
2023-05-22T14:07:59.570Z,2.78
2023-05-22T14:10:38.923Z,2.50
2023-05-22T14:13:19.085Z,2.40
2023-05-22T14:15:57.296Z,3.85
2023-05-22T14:21:28.690Z,5.53
2023-05-22T14:24:05.724Z,5.55
2023-05-22T14:26:49.086Z,3.45
2023-05-22T14:29:40.715Z,4.10
2023-05-22T14:32:16.409Z,5.32
2023-05-22T14:34:57.070Z,5.03
2023-05-22T14:40:22.337Z,4.93
2023-05-22T14:43:16.642Z,3.45
2023-05-22T14:45:56.074Z,3.70
2023-05-22T14:51:38.629Z,4.05
2023-05-22T14:54:25.754Z,4.68
2023-05-22T14:57:16.855Z,5.60
2023-05-22T14:59:49.108Z,4.35
2023-05-22T15:05:13.062Z,4.22
2023-05-22T15:08:13.301Z,3.78
2023-05-22T15:10:52.128Z,3.60
2023-05-22T15:13:31.450Z,4.13
2023-05-22T15:16:11.082Z,3.88
2023-05-22T15:18:52.593Z,4.10
2023-05-22T15:21:27.615Z,3.85
2023-05-22T15:24:18.393Z,3.88
2023-05-22T15:27:01.478Z,4.30
2023-05-22T15:29:36.161Z,3.83
2023-05-22T15:32:15.996Z,3.58
2023-05-22T15:34:49.413Z,4.43
2023-05-22T15:37:27.004Z,4.22
2023-05-22T15:40:17.174Z,4.47
2023-05-22T15:42:55.940Z,5.45
2023-05-22T15:45:35.573Z,4.45
2023-05-22T15:48:08.602Z,4.80
2023-05-22T15:50:47.438Z,4.32
2023-05-22T15:53:24.033Z,4.18
2023-05-22T15:56:20.875Z,4.32
2023-05-22T15:59:05.671Z,4.35
2023-05-22T16:01:56.721Z,4.70
2023-05-22T16:04:31.975Z,4.03
2023-05-22T16:07:11.367Z,4.43
2023-05-22T16:09:51.424Z,4.32
2023-05-22T16:12:52.999Z,3.20
2023-05-22T16:15:42.577Z,3.85
2023-05-22T16:18:24.956Z,3.63
2023-05-22T16:21:04.128Z,3.35
2023-05-22T16:23:38.006Z,4.25
2023-05-22T16:26:14.379Z,3.65
2023-05-22T16:29:03.038Z,4.40
2023-05-22T16:31:38.810Z,3.92
2023-05-22T16:34:12.185Z,3.88
2023-05-22T16:36:56.013Z,3.78
2023-05-22T16:39:35.114Z,3.72
2023-05-22T16:42:29.899Z,3.38
2023-05-22T16:45:06.474Z,4.28
2023-05-22T16:47:41.857Z,4.10
2023-05-22T16:50:22.978Z,4.63
2023-05-22T16:53:01.646Z,4.40
2023-05-22T16:55:45.127Z,4.07
2023-05-22T16:58:19.799Z,4.38
2023-05-22T17:01:10.214Z,4.72
2023-05-22T17:03:48.030Z,4.25
2023-05-22T17:06:21.084Z,4.20
2023-05-22T17:09:09.283Z,4.20
2023-05-22T17:11:55.500Z,4.35
2023-05-22T17:14:35.693Z,4.47
2023-05-22T17:17:23.811Z,3.50
2023-05-22T17:20:16.065Z,4.93
2023-05-22T17:22:52.768Z,3.88
2023-05-22T17:25:29.654Z,3.38
2023-05-22T17:28:11.249Z,4.30
2023-05-22T17:30:52.812Z,4.23
2023-05-22T17:33:44.290Z,3.70
2023-05-22T17:36:29.474Z,3.75
2023-05-22T17:39:07.080Z,4.53
2023-05-22T17:41:50.370Z,3.65
2023-05-22T17:44:26.964Z,3.92
2023-05-22T17:47:03.688Z,4.57
2023-05-22T17:49:43.410Z,4.07
2023-05-22T17:52:19.476Z,3.97
2023-05-22T17:54:56.510Z,3.90
2023-05-22T17:57:33.828Z,4.15
2023-05-22T18:00:10.335Z,4.50
2023-05-22T18:02:45.754Z,3.92
2023-05-22T18:05:40.210Z,6.07
2023-05-22T18:08:22.216Z,5.95
2023-05-22T18:11:00.527Z,6.63
2023-05-22T18:13:41.682Z,5.72
2023-05-22T18:16:12.171Z,9.73
2023-05-22T18:18:42.512Z,6.63
2023-05-22T18:21:16.270Z,5.78
2023-05-22T18:23:51.531Z,5.97
2023-05-22T18:26:29.863Z,6.40
2023-05-22T18:29:01.874Z,5.60
2023-05-22T18:31:39.247Z,5.82
2023-05-22T18:34:15.403Z,5.90
2023-05-22T18:37:01.976Z,4.57
2023-05-22T18:39:32.892Z,5.18
2023-05-22T18:42:06.321Z,12.30
2023-05-22T18:44:46.866Z,6.80
2023-05-22T18:47:25.263Z,5.55
2023-05-22T18:50:01.419Z,5.07
2023-05-22T18:52:49.754Z,5.78
2023-05-22T18:55:28.646Z,5.10
2023-05-22T18:57:59.560Z,5.93
2023-05-22T19:00:33.715Z,5.63
2023-05-22T19:03:08.158Z,4.82
2023-05-22T19:05:45.908Z,5.50
2023-05-22T19:08:36.374Z,10.30
2023-05-22T19:11:09.946Z,5.53
2023-05-22T19:13:46.214Z,5.00
2023-05-22T19:16:30.778Z,4.30
2023-05-22T19:22:18.686Z,5.28
2023-05-22T19:24:56.420Z,4.78
2023-05-22T19:27:36.581Z,4.70
2023-05-22T19:30:19.606Z,5.25
2023-05-22T19:32:59.266Z,5.50
2023-05-22T19:35:40.848Z,5.30
2023-05-22T19:38:11.375Z,6.38
2023-05-22T19:41:01.109Z,5.45
2023-05-22T19:43:40.639Z,5.40
2023-05-22T19:46:22.886Z,6.63
2023-05-22T19:48:55.514Z,6.10
2023-05-22T19:51:30.777Z,6.10
2023-05-22T19:54:12.304Z,5.93
2023-05-22T19:56:51.382Z,6.55
2023-05-22T19:59:39.540Z,5.90
2023-05-22T20:02:19.732Z,5.43
2023-05-22T20:05:04.894Z,6.13
2023-05-22T20:07:35.162Z,6.38
2023-05-22T20:10:10.511Z,7.18
2023-05-22T20:13:04.251Z,6.68
2023-05-22T20:15:41.940Z,7.40
2023-05-22T20:18:30.352Z,7.50
2023-05-22T20:21:07.646Z,7.65
2023-05-22T20:23:49.189Z,7.38
2023-05-22T20:26:26.975Z,8.57
2023-05-22T20:29:03.218Z,8.45
2023-05-22T20:31:49.028Z,8.15
2023-05-22T20:34:25.571Z,9.65
2023-05-22T20:37:11.255Z,8.77
2023-05-22T20:39:52.955Z,9.20
2023-05-22T20:42:37.530Z,7.47
2023-05-22T20:45:24.769Z,7.20
2023-05-22T20:47:59.592Z,6.82
2023-05-22T20:50:34.688Z,6.03
2023-05-22T20:53:21.931Z,6.28
2023-05-22T20:56:00.219Z,6.85
2023-05-22T20:58:31.272Z,6.72
2023-05-22T21:01:17.459Z,7.13
2023-05-22T21:03:56.922Z,7.13
2023-05-22T21:06:31.678Z,7.38
2023-05-22T21:09:23.986Z,7.15
2023-05-22T21:12:05.605Z,7.30
2023-05-22T21:14:42.093Z,7.15
2023-05-22T21:17:31.069Z,7.93
2023-05-22T21:20:03.881Z,7.15
2023-05-22T21:22:44.009Z,7.47
2023-05-22T21:25:22.752Z,7.50
2023-05-22T21:27:59.785Z,7.57
2023-05-22T21:30:32.302Z,6.90
2023-05-22T21:33:12.587Z,7.85
2023-05-22T21:35:51.397Z,6.97
2023-05-22T21:38:30.315Z,7.63
2023-05-22T21:41:05.798Z,6.80
2023-05-22T21:43:49.476Z,7.03
2023-05-22T21:46:30.143Z,6.53
2023-05-22T21:49:17.207Z,6.70
2023-05-22T21:51:51.338Z,6.93
2023-05-22T21:54:31.270Z,6.95
2023-05-22T21:57:08.768Z,7.30
2023-05-22T21:59:48.404Z,6.43
2023-05-22T22:02:27.088Z,7.70
2023-05-22T22:05:13.614Z,6.80
2023-05-22T22:07:52.557Z,6.70
2023-05-22T22:10:25.119Z,6.60
2023-05-22T22:13:07.687Z,7.25
2023-05-22T22:15:56.059Z,6.70
2023-05-22T22:18:48.130Z,7.32
2023-05-22T22:21:37.121Z,7.20
2023-05-22T22:24:14.343Z,8.27
2023-05-22T22:26:51.390Z,8.57
2023-05-22T22:29:31.876Z,8.70
2023-05-22T22:32:07.369Z,7.80
2023-05-22T22:34:48.638Z,8.65
2023-05-22T22:37:40.617Z,9.15
2023-05-22T22:40:26.074Z,8.25
2023-05-22T22:43:09.471Z,8.13
2023-05-22T22:45:46.464Z,9.63
2023-05-22T22:48:25.617Z,9.20
2023-05-22T22:51:06.269Z,9.45
2023-05-22T22:56:22.546Z,8.85
2023-05-22T22:59:05.419Z,10.18
2023-05-22T23:01:45.819Z,10.00
2023-05-22T23:04:23.285Z,9.27
2023-05-22T23:07:16.049Z,9.52
2023-05-22T23:09:57.710Z,42.92
2023-05-22T23:12:41.723Z,15.40
2023-05-22T23:15:22.985Z,10.18
2023-05-22T23:17:58.912Z,9.07
2023-05-22T23:20:29.630Z,8.98
2023-05-22T23:23:04.644Z,8.40
2023-05-22T23:25:52.487Z,9.23
2023-05-22T23:28:41.865Z,8.27
2023-05-22T23:31:19.174Z,9.57
2023-05-22T23:33:59.229Z,9.50
2023-05-22T23:36:39.306Z,8.38
2023-05-22T23:39:22.178Z,9.07
2023-05-22T23:42:06.388Z,8.65
2023-05-22T23:44:39.045Z,8.50
2023-05-22T23:47:23.384Z,7.65
2023-05-22T23:50:01.997Z,8.20
2023-05-22T23:52:32.617Z,7.72
2023-05-22T23:55:10.831Z,8.20
2023-05-22T23:57:48.887Z,7.75
